Time;durP1;ratioP1;P1;durP2;ratioP2;P2;SDS_P1;SDS_P2;PMS_P1;PMS_P2;Temp;Humidity;BMP_temperature;BMP_pressure;BME280_temperature;BME280_humidity;BME280_pressure;Samples;Min_cycle;Max_cycle;Signal;HPM_P1;HPM_P2
2021/07/24 00:09:04;;;;;;;;;;;;;;;;;;;;;
2021/07/24 00:16:31;;;;;;;;;;;;;;;;;;;;;
2021/07/24 00:27:58;;;;;;;;;;;;;;;;;;;;;
2021/07/24 00:46:24;;;;;;;1.70;1.17;;;;;;;20.22;73.41;92623.13;4791141;29;20043;-96
2021/07/24 00:53:50;;;;;;;1.58;1.05;;;;;;;20.51;73.14;92648.53;4789804;29;20051;-95
2021/07/24 00:57:06;;;;;;;1.95;1.05;;;;;;;20.28;73.37;92616.47;4818870;29;20038;-96
2021/07/24 01:04:14;;;;;;;;;;;;;;;;;;;;;
2021/07/24 01:08:11;;;;;;;;;;;;;;;;;;;;;
2021/07/24 01:22:41;;;;;;;;;;;;;;;;;;;;;
2021/07/24 01:26:16;;;;;;;;;;;;;;;;;;;;;
2021/07/24 01:33:27;;;;;;;1.85;1.38;;;;;;;20.34;73.35;92647.75;4804932;29;20472;-96
2021/07/24 01:41:04;;;;;;;;;;;;;;;;;;;;;
2021/07/24 01:56:59;;;;;;;;;;;;;;;;;;;;;
2021/07/24 02:12:40;;;;;;;;;;;;;;;;;;;;;
2021/07/24 02:20:01;;;;;;;;;;;;;;;;;;;;;
2021/07/24 02:38:21;;;;;;;;;;;;;;;;;;;;;
2021/07/24 02:42:16;;;;;;;2.65;1.83;;;;;;;20.48;75.90;92577.44;4829624;29;20049;-95
2021/07/24 02:45:46;;;;;;;3.55;2.40;;;;;;;20.71;76.18;92607.63;4819810;29;20056;-96
2021/07/24 02:49:17;;;;;;;;;;;;;;;;;;;;;
2021/07/24 03:00:06;;;;;;;1.45;1.30;;;;;;;20.39;77.24;92564.31;4820092;29;20179;-96
2021/07/24 03:03:39;;;;;;;;;;;;;;;;;;;;;
2021/07/24 03:06:54;;;;;;;2.65;1.45;;;;;;;20.63;77.82;92603.28;4814838;29;20169;-95
2021/07/24 03:22:31;;;;;;;;;;;;;;;;;;;;;
2021/07/24 03:42:48;;;;;;;;;;;;;;;;;;;;;
2021/07/24 04:05:26;;;;;;;1.98;1.52;;;;;;;20.65;76.34;92611.69;4756714;30;20137;-95
2021/07/24 04:09:08;;;;;;;;;;;;;;;;;;;;;
2021/07/24 04:12:39;;;;;;;1.08;0.90;;;;;;;20.57;77.19;92613.38;4766734;30;20051;-94
2021/07/24 04:34:34;;;;;;;;;;;;;;;;;;;;;
2021/07/24 04:38:23;;;;;;;2.25;1.50;;;;;;;20.35;76.51;92600.69;4800909;29;20544;-96
2021/07/24 04:41:58;;;;;;;;;;;;;;;;;;;;;
2021/07/24 04:45:37;;;;;;;1.65;1.27;;;;;;;20.09;74.95;92577.28;4816745;29;20054;-94
2021/07/24 05:22:01;;;;;;;0.70;0.70;;;;;;;20.14;76.82;92569.06;4891923;29;20084;-90
2021/07/24 05:25:04;;;;;;;;;;;;;;;;;;;;;
2021/07/24 05:31:39;;;;;;;0.52;0.50;;;;;;;20.16;77.06;92570.25;4825005;29;20076;-91
2021/07/24 05:38:11;;;;;;;3.10;1.83;;;;;;;20.22;78.07;92560.16;4884072;29;20511;-90
2021/07/24 05:48:21;;;;;;;1.58;1.33;;;;;;;20.39;76.41;92570.41;4875446;29;20406;-90
2021/07/24 05:51:39;;;;;;;;;;;;;;;;;;;;;
2021/07/24 05:55:21;;;;;;;1.17;1.02;;;;;;;20.19;77.60;92560.81;4853441;29;20056;-90
2021/07/24 05:58:56;;;;;;;3.25;2.03;;;;;;;20.33;78.15;92592.28;4843881;29;20053;-90
2021/07/24 06:02:01;;;;;;;1.35;1.23;;;;;;;20.10;78.78;92563.66;4853991;29;20053;-90
2021/07/24 06:12:36;;;;;;;2.05;1.70;;;;;;;20.21;79.99;92595.03;4836179;29;20109;-89
2021/07/24 06:15:49;;;;;;;;;;;;;;;;;;;;;
2021/07/24 06:18:56;;;;;;;1.43;1.23;;;;;;;19.88;80.14;92550.94;4885602;29;20411;-90
2021/07/24 06:22:12;;;;;;;;;;;;;;;;;;;;;
2021/07/24 06:32:06;;;;;;;2.75;1.75;;;;;;;19.99;81.78;92528.06;4872756;29;20532;-90
2021/07/24 06:35:46;;;;;;;;;;;;;;;;;;;;;
2021/07/24 06:43:16;;;;;;;1.38;1.25;;;;;;;20.74;80.25;92563.63;4854849;29;20052;-94
2021/07/24 06:50:34;;;;;;;;;;;;;;;;;;;;;
2021/07/24 07:08:26;;;;;;;;;;;;;;;;;;;;;
2021/07/24 07:22:13;;;;;;;3.40;2.33;;;;;;;21.57;72.20;92552.72;4906429;29;20139;-93
2021/07/24 07:24:45;;;;;;;1.30;1.10;;;;;;;21.94;71.22;92600.97;4852132;29;20140;-79
2021/07/24 07:27:11;;;;;;;1.90;1.42;;;;;;;21.46;80.11;92605.00;4867576;29;20077;-79
2021/07/24 07:29:36;;;;;;;1.00;0.93;;;;;;;21.03;82.91;92606.78;4846029;29;20054;-77
2021/07/24 07:32:02;;;;;;;2.30;1.52;;;;;;;20.71;83.44;92606.84;4865454;29;20136;-78
2021/07/24 07:34:28;;;;;;;1.50;1.02;;;;;;;20.69;82.66;92599.22;4857967;29;20053;-77
2021/07/24 07:36:54;;;;;;;2.70;1.85;;;;;;;20.75;82.55;92600.50;4858726;29;20053;-77
2021/07/24 07:39:21;;;;;;;2.30;1.60;;;;;;;20.81;81.56;92598.34;4861230;29;20487;-77
2021/07/24 07:41:46;;;;;;;3.30;1.58;;;;;;;20.91;82.62;92605.00;4877316;29;20045;-77
2021/07/24 07:44:12;;;;;;;2.78;2.08;;;;;;;21.11;82.05;92603.16;4877036;29;20462;-77
2021/07/24 07:46:38;;;;;;;1.73;1.38;;;;;;;21.33;80.47;92599.81;4845691;29;20499;-77
2021/07/24 07:49:03;;;;;;;1.67;1.42;;;;;;;21.41;78.51;92603.41;4877517;29;20048;-77
2021/07/24 07:51:29;;;;;;;2.55;1.85;;;;;;;21.30;78.39;92600.50;4883626;29;20045;-77
2021/07/24 07:53:55;;;;;;;1.55;1.10;;;;;;;21.65;77.50;92594.34;4859361;29;20459;-76
2021/07/24 07:56:21;;;;;;;2.30;1.50;;;;;;;21.89;77.25;92584.53;4869539;29;20037;-77
2021/07/24 07:58:46;;;;;;;1.85;1.48;;;;;;;21.65;76.92;92605.00;4860501;29;20074;-77
2021/07/24 08:01:13;;;;;;;3.03;2.00;;;;;;;21.30;78.88;92608.50;4844919;29;20110;-79
2021/07/24 08:03:40;;;;;;;2.78;1.60;;;;;;;21.33;77.31;92605.13;4875006;29;20063;-78
2021/07/24 08:06:05;;;;;;;2.42;1.73;;;;;;;21.13;76.26;92614.22;4857136;29;20116;-78
2021/07/24 08:08:31;;;;;;;1.60;1.13;;;;;;;21.06;77.65;92611.41;4845709;29;20490;-77
2021/07/24 08:10:57;;;;;;;8.02;2.10;;;;;;;20.79;77.46;92597.91;4862475;29;20049;-77
2021/07/24 08:13:25;;;;;;;3.50;2.22;;;;;;;20.77;78.48;92595.59;4861835;29;20341;-78
2021/07/24 08:15:51;;;;;;;3.20;1.75;;;;;;;20.91;78.74;92613.00;4859965;29;20041;-78
2021/07/24 08:18:16;;;;;;;2.78;1.00;;;;;;;20.82;78.57;92615.84;4861200;29;20108;-78
2021/07/24 08:20:42;;;;;;;2.47;1.52;;;;;;;20.83;78.37;92611.28;4876986;29;20048;-78
2021/07/24 08:23:10;;;;;;;1.15;1.02;;;;;;;20.81;78.03;92616.19;4881076;29;20064;-77
2021/07/24 08:25:37;;;;;;;2.88;1.70;;;;;;;20.71;78.39;92612.94;4864192;29;20049;-78
2021/07/24 08:28:04;;;;;;;2.58;2.05;;;;;;;20.61;79.09;92618.03;4879609;29;20045;-78
2021/07/24 08:30:30;;;;;;;2.13;1.17;;;;;;;20.53;79.83;92620.47;4874258;29;20045;-79
2021/07/24 08:32:56;;;;;;;1.98;1.60;;;;;;;20.48;80.30;92619.97;4883270;29;20040;-79
2021/07/24 08:35:22;;;;;;;3.20;1.30;;;;;;;20.42;80.33;92616.03;4863580;29;20053;-79
2021/07/24 08:37:47;;;;;;;2.33;1.33;;;;;;;20.38;80.49;92600.00;4844519;29;20960;-78
2021/07/24 08:40:15;;;;;;;2.70;1.75;;;;;;;20.41;80.10;92590.56;4859171;29;20038;-77
2021/07/24 08:42:42;;;;;;;3.50;2.25;;;;;;;20.52;79.60;92587.03;4868191;29;20049;-77
2021/07/24 08:45:19;;;;;;;2.40;1.50;;;;;;;20.71;81.34;92601.53;4848310;29;20506;-79
2021/07/24 08:47:45;;;;;;;3.20;1.48;;;;;;;20.72;81.13;92613.72;4857324;29;20089;-77
2021/07/24 08:50:13;;;;;;;2.90;2.33;;;;;;;20.75;80.34;92610.38;4874382;29;20037;-79
2021/07/24 08:52:39;;;;;;;1.63;1.20;;;;;;;20.75;78.02;92605.81;4852520;29;20041;-79
2021/07/24 08:55:07;;;;;;;1.10;1.00;;;;;;;20.84;79.19;92594.22;4893787;29;20506;-78
2021/07/24 08:57:39;;;;;;;1.20;1.10;;;;;;;20.98;78.74;92603.28;4862217;29;20049;-80
2021/07/24 09:00:15;;;;;;;2.53;1.90;;;;;;;21.12;78.27;92610.00;4869068;29;20036;-80
2021/07/24 09:02:43;;;;;;;1.55;1.20;;;;;;;21.30;77.44;92595.19;4856124;29;20045;-79
2021/07/24 09:05:11;;;;;;;1.88;1.27;;;;;;;21.61;78.48;92567.63;4870830;29;20114;-80
2021/07/24 09:07:40;;;;;;;1.60;1.27;;;;;;;22.13;75.57;92554.81;4865177;29;20048;-80
2021/07/24 09:10:07;;;;;;;1.45;1.27;;;;;;;22.57;74.22;92566.97;4849749;29;20140;-80
2021/07/24 09:12:35;;;;;;;2.00;1.42;;;;;;;23.34;71.77;92563.06;4882027;29;20555;-79
2021/07/24 09:15:05;;;;;;;1.83;1.60;;;;;;;23.98;69.55;92568.34;4863585;29;20608;-79
2021/07/24 09:17:30;;;;;;;3.38;2.28;;;;;;;23.88;69.64;92574.34;4888382;29;20049;-79
2021/07/24 09:19:57;;;;;;;1.73;1.48;;;;;;;23.80;70.28;92576.19;4871185;29;20048;-79
2021/07/24 09:22:34;;;;;;;2.22;1.70;;;;;;;23.65;72.67;92580.56;4881166;29;20044;-80
2021/07/24 09:25:17;;;;;;;3.67;1.98;;;;;;;23.56;72.11;92571.31;4881561;29;20492;-79
2021/07/24 09:27:42;;;;;;;3.90;2.63;;;;;;;;;;4881629;29;20052;-80
2021/07/24 09:30:29;;;;;;;1.38;1.15;;;;;;;23.31;70.30;92571.81;4881810;29;20041;-81
2021/07/24 09:33:06;;;;;;;3.60;1.67;;;;;;;23.84;69.38;92562.84;4883794;29;20100;-81
2021/07/24 09:35:44;;;;;;;1.52;1.20;;;;;;;23.99;65.91;92572.53;4879132;29;20423;-81
2021/07/24 09:38:13;;;;;;;3.42;2.22;;;;;;;23.99;67.29;92567.19;4886251;29;20052;-79
2021/07/24 09:40:40;;;;;;;2.67;1.63;;;;;;;23.97;66.32;92571.38;4871335;29;20051;-80
2021/07/24 09:43:28;;;;;;;2.53;1.85;;;;;;;23.96;67.61;92575.19;4902316;29;20060;-80
2021/07/24 09:46:23;;;;;;;1.60;1.25;;;;;;;24.30;65.31;92568.63;4881181;29;20048;-80
2021/07/24 09:48:50;;;;;;;3.42;2.08;;;;;;;24.52;64.40;92582.22;4877296;29;20051;-81
2021/07/24 09:51:30;;;;;;;1.42;1.05;;;;;;;24.49;64.79;92575.66;4880763;29;20366;-81
2021/07/24 09:53:56;;;;;;;3.30;2.25;;;;;;;24.17;65.91;92575.38;4877567;29;20037;-79
2021/07/24 09:56:40;;;;;;;5.25;1.77;;;;;;;24.14;66.71;92584.16;4885929;29;20044;-80
2021/07/24 09:59:30;;;;;;;2.78;1.92;;;;;;;23.96;68.89;92581.31;4865178;29;20038;-78
2021/07/24 10:01:59;;;;;;;4.35;2.67;;;;;;;23.81;68.26;92593.75;4879189;29;20045;-80
2021/07/24 10:04:30;;;;;;;2.75;1.80;;;;;;;23.88;66.20;92585.81;4897708;29;20111;-79
2021/07/24 10:06:58;;;;;;;2.20;1.45;;;;;;;23.96;66.61;92575.19;4880010;29;20049;-79
2021/07/24 10:09:28;;;;;;;4.13;1.50;;;;;;;23.97;67.36;92590.84;4861244;29;20056;-78
2021/07/24 10:11:55;;;;;;;1.38;1.15;;;;;;;23.90;67.33;92591.56;4863687;29;20245;-78
2021/07/24 10:14:22;;;;;;;5.18;2.03;;;;;;;23.97;67.73;92576.72;4888441;29;20092;-78
2021/07/24 10:16:50;;;;;;;4.18;2.53;;;;;;;24.04;66.55;92577.56;4880203;29;20045;-78
2021/07/24 10:19:20;;;;;;;1.35;1.13;;;;;;;23.59;66.77;92573.25;4881060;29;20033;-78
2021/07/24 10:21:47;;;;;;;1.13;0.95;;;;;;;23.98;64.67;92588.94;4865571;29;20078;-79
2021/07/24 10:24:16;;;;;;;6.20;2.33;;;;;;;24.30;65.77;92581.22;4846280;29;20499;-80
2021/07/24 10:27:07;;;;;;;2.10;1.60;;;;;;;24.83;63.60;92585.47;4858951;29;20449;-81
2021/07/24 10:29:35;;;;;;;2.42;2.03;;;;;;;25.42;61.24;92578.16;4848477;29;20114;-78
2021/07/24 10:32:11;;;;;;;4.82;2.55;;;;;;;25.86;59.46;92569.09;4856285;29;20057;-78
2021/07/24 10:34:40;;;;;;;4.55;2.40;;;;;;;26.01;60.94;92566.47;4859754;29;20042;-79
2021/07/24 10:37:34;;;;;;;2.75;2.20;;;;;;;26.42;57.78;92558.09;4864931;29;20063;-79
2021/07/24 10:40:15;;;;;;;2.10;1.65;;;;;;;25.03;65.91;92562.63;4856456;29;20797;-79
2021/07/24 10:42:44;;;;;;;4.73;2.60;;;;;;;25.02;65.18;92555.75;4849604;29;20050;-78
2021/07/24 10:45:34;;;;;;;3.47;2.17;;;;;;;24.02;67.94;92552.31;4853179;29;20375;-80
2021/07/24 10:48:41;;;;;;;6.32;2.22;;;;;;;23.72;67.75;92557.75;4841859;29;20093;-78
2021/07/24 10:51:07;;;;;;;1.35;1.08;;;;;;;24.41;65.42;92560.69;4842302;29;20198;-77
2021/07/24 10:54:03;;;;;;;2.38;1.52;;;;;;;23.83;69.56;92547.97;4865293;29;20049;-81
2021/07/24 10:56:40;;;;;;;3.80;2.50;;;;;;;24.08;69.59;92551.63;4832488;29;20053;-79
2021/07/24 10:59:14;;;;;;;3.50;1.88;;;;;;;24.45;63.95;92556.13;4862686;29;20048;-80
2021/07/24 11:01:45;;;;;;;2.42;1.48;;;;;;;24.50;64.32;92560.41;4844689;29;20499;-80
2021/07/24 11:04:37;;;;;;;2.38;1.65;;;;;;;24.92;64.35;92567.16;4845400;29;20053;-78
2021/07/24 11:07:21;;;;;;;;;;;;;;;24.73;65.29;92565.53;4846228;29;20071;-77
2021/07/24 11:10:08;;;;;;;3.42;2.20;;;;;;;23.86;69.63;92566.69;4846418;29;19920;-79
2021/07/24 11:12:35;;;;;;;3.65;2.08;;;;;;;23.69;69.87;92560.00;4856679;29;20082;-79
2021/07/24 11:15:05;;;;;;;2.92;2.10;;;;;;;23.91;70.07;92560.25;4859526;29;20699;-79
2021/07/24 11:17:31;;;;;;;3.13;1.98;;;;;;;23.88;70.92;92556.41;4856860;29;20046;-79
2021/07/24 11:19:59;;;;;;;4.93;2.53;;;;;;;23.93;69.97;92559.88;4845210;29;20223;-78
2021/07/24 11:22:28;;;;;;;5.45;1.33;;;;;;;24.00;69.43;92544.69;4857147;29;20073;-79
2021/07/24 11:24:54;;;;;;;5.13;2.72;;;;;;;24.14;68.04;92553.94;4864284;29;20073;-79
2021/07/24 11:27:23;;;;;;;2.83;2.33;;;;;;;24.37;67.23;92540.41;4843385;29;20512;-79
2021/07/24 11:29:48;;;;;;;2.60;2.03;;;;;;;24.00;68.15;92523.31;4863430;29;20302;-80
2021/07/24 11:32:34;;;;;;;3.10;2.33;;;;;;;24.23;66.31;92523.09;4866456;29;20132;-79
2021/07/24 11:35:01;;;;;;;3.30;2.30;;;;;;;24.30;68.21;92512.44;4849252;29;20416;-81
2021/07/24 11:37:38;;;;;;;3.35;2.58;;;;;;;24.15;69.38;92510.03;4849261;29;20041;-80
2021/07/24 11:40:06;;;;;;;3.45;1.48;;;;;;;23.92;69.59;92507.56;4863512;29;20042;-79
2021/07/24 11:42:32;;;;;;;3.55;2.13;;;;;;;23.86;68.67;92520.50;4848936;29;20500;-79
2021/07/24 11:44:58;;;;;;;3.33;2.33;;;;;;;23.98;69.43;92524.78;4834370;29;20052;-79
2021/07/24 11:47:23;;;;;;;2.15;1.73;;;;;;;23.72;68.25;92536.38;4863685;29;20046;-80
2021/07/24 11:49:49;;;;;;;2.90;2.17;;;;;;;23.77;67.40;92523.47;4845567;29;20052;-78
2021/07/24 11:52:22;;;;;;;4.65;2.78;;;;;;;23.91;67.37;92517.47;4862813;29;20057;-80
2021/07/24 11:54:51;;;;;;;2.97;1.90;;;;;;;23.83;67.95;92508.63;4845890;29;20094;-78
2021/07/24 11:57:30;;;;;;;2.13;1.60;;;;;;;24.17;66.98;92505.09;4858312;29;20045;-80
2021/07/24 11:59:55;;;;;;;3.60;2.38;;;;;;;24.41;65.47;92509.06;4860195;29;20144;-79
2021/07/24 12:02:21;;;;;;;4.53;3.05;;;;;;;24.58;65.33;92511.13;4845074;29;20420;-81
2021/07/24 12:04:48;;;;;;;3.88;2.45;;;;;;;24.57;64.15;92508.84;4862072;29;20053;-80
2021/07/24 12:07:16;;;;;;;3.13;2.67;;;;;;;24.69;66.16;92508.53;4862069;29;20515;-81
2021/07/24 12:09:42;;;;;;;3.15;2.28;;;;;;;24.54;67.93;92513.00;4853150;29;20133;-79
2021/07/24 12:12:08;;;;;;;2.22;1.55;;;;;;;24.49;66.51;92514.13;4834365;29;20057;-82
2021/07/24 12:14:34;;;;;;;2.03;1.50;;;;;;;24.06;66.63;92513.03;4857794;29;20048;-81
2021/07/24 12:17:09;;;;;;;5.85;1.88;;;;;;;23.69;68.56;92495.13;4845623;29;20054;-81
2021/07/24 12:19:43;;;;;;;3.58;2.17;;;;;;;23.24;70.16;92504.97;4861114;29;20033;-79
2021/07/24 12:22:13;;;;;;;5.07;2.53;;;;;;;22.95;71.18;92501.91;4861972;29;20597;-80
2021/07/24 12:24:40;;;;;;;3.00;2.38;;;;;;;23.17;71.57;92494.97;4842709;29;20118;-79
2021/07/24 12:27:11;;;;;;;3.45;2.50;;;;;;;23.30;69.38;92495.47;4841618;29;20168;-80
2021/07/24 12:29:58;;;;;;;4.60;2.33;;;;;;;23.25;69.64;92501.16;4846247;29;20046;-80
2021/07/24 12:32:37;;;;;;;4.63;2.67;;;;;;;23.41;68.98;92492.91;4837660;29;20054;-80
2021/07/24 12:35:22;;;;;;;8.57;3.22;;;;;;;23.73;69.13;92476.44;4824697;29;20080;-79
2021/07/24 12:37:48;;;;;;;3.75;2.33;;;;;;;24.15;66.60;92460.00;4857520;29;20102;-80
2021/07/24 12:40:19;;;;;;;5.68;3.95;;;;;;;24.56;65.55;92473.28;4857117;29;20042;-82
2021/07/24 12:42:45;;;;;;;4.53;3.20;;;;;;;24.18;65.38;92466.50;4847269;29;20049;-77
2021/07/24 12:45:31;;;;;;;6.32;3.22;;;;;;;24.21;65.52;92460.44;4851856;29;20042;-76
2021/07/24 12:48:15;;;;;;;5.63;3.83;;;;;;;23.93;64.37;92455.63;4843373;29;20071;-77
2021/07/24 12:50:40;;;;;;;4.40;3.10;;;;;;;23.77;67.93;92455.88;4851205;29;20053;-82
2021/07/24 12:53:06;;;;;;;2.85;2.20;;;;;;;23.81;67.30;92468.13;4847747;29;20408;-79
2021/07/24 12:55:35;;;;;;;4.00;2.63;;;;;;;24.35;66.83;92468.53;4855738;29;20061;-79
2021/07/24 12:58:01;;;;;;;6.38;2.78;;;;;;;24.63;64.60;92475.22;4862543;29;20053;-78
2021/07/24 13:00:30;;;;;;;4.85;3.30;;;;;;;24.58;65.32;92489.72;4848764;29;20057;-80
2021/07/24 13:02:55;;;;;;;4.68;3.05;;;;;;;24.54;64.30;92472.88;4849056;29;20053;-78
2021/07/24 13:05:22;;;;;;;5.55;3.08;;;;;;;24.58;65.20;92468.31;4822970;29;20046;-79
2021/07/24 13:07:49;;;;;;;7.95;3.70;;;;;;;24.36;65.14;92466.63;4827796;29;20184;-79
2021/07/24 13:10:15;;;;;;;2.65;2.25;;;;;;;24.49;65.78;92465.97;4839108;29;20041;-79
2021/07/24 13:12:42;;;;;;;6.55;3.42;;;;;;;24.49;64.70;92465.22;4856390;29;20089;-80
2021/07/24 13:15:10;;;;;;;5.85;3.13;;;;;;;24.57;65.64;92463.34;4850113;29;20052;-77
2021/07/24 13:17:36;;;;;;;4.75;2.67;;;;;;;24.57;65.31;92466.78;4862031;29;20067;-78
2021/07/24 13:20:04;;;;;;;5.35;2.80;;;;;;;24.14;65.22;92471.84;4861569;29;20493;-78
2021/07/24 13:22:30;;;;;;;5.65;3.75;;;;;;;24.06;66.22;92463.00;4851166;29;20053;-77
2021/07/24 13:25:04;;;;;;;3.80;2.50;;;;;;;24.12;66.68;92462.66;4885048;29;20431;-80
2021/07/24 13:30:15;;;;;;;8.55;2.55;;;;;;;24.01;64.25;92462.56;4868955;29;20046;-80
2021/07/24 13:32:41;;;;;;;3.80;1.80;;;;;;;23.70;65.41;92473.34;4889618;29;20419;-82
2021/07/24 13:35:08;;;;;;;3.47;2.13;;;;;;;23.17;64.94;92481.63;4876542;29;20048;-82
2021/07/24 13:37:37;;;;;;;4.97;3.13;;;;;;;23.02;65.56;92496.69;4883188;29;20112;-80
2021/07/24 13:40:08;;;;;;;4.15;3.28;;;;;;;22.89;67.74;92502.59;4880640;29;20044;-81
2021/07/24 13:42:34;;;;;;;6.50;2.45;;;;;;;22.79;67.18;92501.34;4880600;29;20052;-80
2021/07/24 13:45:00;;;;;;;2.95;2.35;;;;;;;22.60;67.06;92481.66;4878749;29;20080;-80
2021/07/24 13:47:26;;;;;;;4.50;2.30;;;;;;;22.44;67.38;92475.72;4896902;29;20117;-80
2021/07/24 13:49:52;;;;;;;2.33;1.70;;;;;;;22.40;67.33;92461.56;4880835;29;20052;-77
2021/07/24 13:52:17;;;;;;;4.57;1.73;;;;;;;22.24;69.32;92459.06;4881070;29;20108;-79
2021/07/24 13:54:43;;;;;;;8.73;2.03;;;;;;;22.21;69.86;92449.88;4883530;29;20097;-79
2021/07/24 13:57:09;;;;;;;3.53;2.25;;;;;;;22.21;69.88;92460.53;4884313;29;20053;-77
2021/07/24 13:59:34;;;;;;;5.32;1.60;;;;;;;22.17;69.51;92458.94;4885246;29;20033;-80
2021/07/24 14:02:00;;;;;;;2.47;1.92;;;;;;;22.13;69.67;92444.78;4883189;29;20053;-79
2021/07/24 14:04:26;;;;;;;3.25;2.22;;;;;;;22.16;73.64;92444.84;4883617;29;20045;-80
2021/07/24 14:06:52;;;;;;;6.78;3.80;;;;;;;22.16;74.24;92439.50;4882129;29;20601;-80
2021/07/24 14:09:21;;;;;;;2.30;1.90;;;;;;;22.23;74.99;92452.97;4885258;29;20053;-81
2021/07/24 14:11:47;;;;;;;5.88;2.58;;;;;;;22.21;74.66;92454.41;4888221;29;20525;-79
2021/07/24 14:14:12;;;;;;;2.88;2.08;;;;;;;22.18;74.54;92452.47;4881849;29;20037;-79
2021/07/24 14:16:38;;;;;;;2.63;2.10;;;;;;;22.13;74.88;92463.44;4876095;29;20114;-79
2021/07/24 14:19:04;;;;;;;3.38;2.45;;;;;;;22.09;74.44;92462.59;4881402;29;20521;-80
2021/07/24 14:21:30;;;;;;;2.95;1.77;;;;;;;22.12;73.96;92462.66;4887432;29;20507;-80
2021/07/24 14:23:56;;;;;;;4.13;2.55;;;;;;;22.10;73.90;92459.59;4851101;29;20065;-80
2021/07/24 14:26:23;;;;;;;3.03;2.25;;;;;;;22.10;74.67;92458.81;4843973;29;20099;-81
2021/07/24 14:28:48;;;;;;;3.65;1.85;;;;;;;22.08;75.13;92451.19;4858178;29;20769;-79
2021/07/24 14:31:14;;;;;;;4.10;2.15;;;;;;;22.09;74.67;92436.75;4841070;29;20072;-79
2021/07/24 14:33:40;;;;;;;3.10;1.77;;;;;;;22.10;72.49;92406.28;4843625;29;20077;-79
2021/07/24 14:36:07;;;;;;;2.72;1.88;;;;;;;22.11;72.28;92381.19;4861387;29;20109;-79
2021/07/24 14:38:37;;;;;;;4.18;2.78;;;;;;;22.19;72.18;92398.03;4861271;29;20050;-78
2021/07/24 14:41:05;;;;;;;2.28;2.00;;;;;;;22.27;73.29;92420.25;4858718;29;20086;-79
2021/07/24 14:43:31;;;;;;;2.35;1.77;;;;;;;22.32;73.13;92427.94;4858932;29;20127;-78
2021/07/24 14:45:57;;;;;;;3.90;2.38;;;;;;;22.40;73.01;92418.88;4856167;29;20056;-76
2021/07/24 14:48:23;;;;;;;2.42;1.98;;;;;;;22.43;73.08;92429.63;4848283;29;20053;-78
2021/07/24 14:50:48;;;;;;;2.55;1.63;;;;;;;22.45;73.26;92431.94;4854093;29;20057;-77
2021/07/24 14:53:14;;;;;;;4.18;1.75;;;;;;;22.46;73.77;92425.47;4853994;29;20053;-78
2021/07/24 14:55:40;;;;;;;3.83;2.75;;;;;;;22.51;73.39;92419.81;4860714;29;20049;-79
2021/07/24 14:58:06;;;;;;;1.85;1.42;;;;;;;22.54;73.13;92411.09;4861426;29;20182;-79
2021/07/24 15:00:31;;;;;;;3.10;1.95;;;;;;;22.74;72.87;92409.03;4859671;29;20637;-77
2021/07/24 15:02:57;;;;;;;3.63;2.53;;;;;;;22.89;72.26;92401.19;4856665;29;20045;-76
2021/07/24 15:05:24;;;;;;;2.70;2.13;;;;;;;23.03;70.31;92396.81;4859636;29;20046;-76
2021/07/24 15:07:51;;;;;;;3.22;2.00;;;;;;;23.18;70.25;92418.31;4858114;29;20423;-76
2021/07/24 15:10:17;;;;;;;2.85;2.05;;;;;;;23.22;70.97;92424.44;4857591;29;20045;-78
2021/07/24 15:12:43;;;;;;;5.15;2.72;;;;;;;23.20;68.97;92422.13;4834115;29;20473;-78
2021/07/24 15:15:09;;;;;;;3.38;2.55;;;;;;;23.20;69.03;92418.72;4860258;29;20515;-79
2021/07/24 15:17:35;;;;;;;3.33;2.42;;;;;;;23.22;67.80;92419.13;4860417;29;20060;-79
2021/07/24 15:20:00;;;;;;;3.83;2.30;;;;;;;23.15;68.48;92427.06;4857233;29;20042;-78
2021/07/24 15:22:26;;;;;;;1.88;1.35;;;;;;;23.16;69.15;92436.59;4844133;29;20102;-78
2021/07/24 15:24:51;;;;;;;2.83;1.75;;;;;;;23.21;68.67;92430.91;4897742;29;20071;-79
2021/07/24 15:27:17;;;;;;;3.65;2.25;;;;;;;23.26;69.53;92433.28;4899044;29;20045;-79
2021/07/24 15:29:43;;;;;;;2.08;1.52;;;;;;;23.21;69.25;92428.25;4899910;29;20488;-79
2021/07/24 15:32:08;;;;;;;2.85;1.98;;;;;;;23.11;68.29;92437.69;4899537;29;20049;-78
2021/07/24 15:34:34;;;;;;;3.33;2.05;;;;;;;23.06;67.63;92433.44;4899030;29;20494;-77
2021/07/24 15:37:00;;;;;;;5.00;2.22;;;;;;;22.86;66.96;92429.38;4898692;29;20048;-78
2021/07/24 15:39:26;;;;;;;7.03;1.85;;;;;;;22.81;67.50;92432.38;4897219;29;20056;-78
2021/07/24 15:41:52;;;;;;;2.47;1.52;;;;;;;22.65;70.10;92425.31;4896338;29;20056;-78
2021/07/24 15:44:17;;;;;;;4.25;2.45;;;;;;;22.62;69.69;92420.69;4884651;29;20044;-80
2021/07/24 15:46:43;;;;;;;3.20;2.28;;;;;;;22.51;70.35;92433.13;4898527;29;20396;-78
2021/07/24 15:49:09;;;;;;;4.63;2.88;;;;;;;22.53;69.78;92428.22;4889241;29;20055;-78
2021/07/24 15:51:35;;;;;;;3.58;1.77;;;;;;;22.54;69.14;92419.09;4878069;29;20244;-77
2021/07/24 15:54:01;;;;;;;2.38;1.70;;;;;;;22.54;69.59;92394.28;4893913;29;20084;-78
2021/07/24 15:56:26;;;;;;;3.03;2.03;;;;;;;22.33;70.38;92387.56;4898982;29;20051;-77
2021/07/24 15:58:52;;;;;;;3.30;1.77;;;;;;;22.24;70.49;92384.41;4893640;29;20048;-78
2021/07/24 16:01:18;;;;;;;5.22;2.45;;;;;;;22.30;70.63;92371.53;4880304;29;20324;-80
2021/07/24 16:03:44;;;;;;;1.52;1.23;;;;;;;22.26;70.00;92370.72;4898437;29;20044;-79
2021/07/24 16:06:10;;;;;;;2.67;1.65;;;;;;;21.97;71.42;92394.28;4860875;29;20053;-78
2021/07/24 16:08:37;;;;;;;2.22;1.50;;;;;;;21.98;72.87;92419.81;4883685;29;20073;-76
2021/07/24 16:11:03;;;;;;;3.72;1.83;;;;;;;22.01;73.16;92461.75;4897400;29;20075;-78
2021/07/24 16:13:29;;;;;;;3.45;1.65;;;;;;;21.97;72.97;92463.56;4870230;29;20055;-78
2021/07/24 16:15:58;;;;;;;1.20;1.10;;;;;;;21.95;72.91;92447.16;4901056;29;20041;-82
2021/07/24 16:18:24;;;;;;;4.40;2.20;;;;;;;21.94;72.77;92408.34;4878232;29;20419;-78
2021/07/24 16:20:50;;;;;;;3.03;2.28;;;;;;;21.75;75.70;92383.34;4900479;29;20037;-77
2021/07/24 16:23:16;;;;;;;5.07;2.17;;;;;;;21.72;75.87;92386.69;4900063;29;20151;-77
2021/07/24 16:25:41;;;;;;;6.57;3.00;;;;;;;21.65;74.92;92375.19;4883276;29;20049;-78
2021/07/24 16:28:08;;;;;;;3.17;2.28;;;;;;;21.53;76.67;92373.47;4866285;29;20332;-77
2021/07/24 16:30:37;;;;;;;4.78;2.50;;;;;;;21.54;77.06;92385.66;4864556;29;20057;-78
2021/07/24 16:33:06;;;;;;;2.05;1.58;;;;;;;21.51;79.09;92383.72;4883706;29;20598;-77
2021/07/24 16:35:31;;;;;;;2.85;1.85;;;;;;;21.49;78.86;92372.66;4850104;29;20401;-78
2021/07/24 16:37:57;;;;;;;9.05;2.60;;;;;;;21.47;79.21;92367.66;4883695;29;20048;-77
2021/07/24 16:40:23;;;;;;;4.57;2.45;;;;;;;21.44;80.94;92347.09;4883927;29;20041;-78
2021/07/24 16:42:48;;;;;;;3.20;2.58;;;;;;;21.39;81.18;92353.47;4883161;29;20053;-79
2021/07/24 16:45:14;;;;;;;2.55;1.65;;;;;;;21.35;82.37;92363.28;4866448;29;20059;-79
2021/07/24 16:47:40;;;;;;;3.60;1.48;;;;;;;21.36;81.80;92356.81;4869013;29;20067;-79
2021/07/24 16:50:06;;;;;;;7.35;3.60;;;;;;;21.32;81.38;92369.31;4881661;29;20051;-83
2021/07/24 16:52:32;;;;;;;3.45;2.28;;;;;;;21.31;80.95;92367.78;4882618;29;20056;-78
2021/07/24 16:54:57;;;;;;;4.07;1.65;;;;;;;21.26;82.53;92386.72;4881747;29;20113;-78
2021/07/24 16:57:23;;;;;;;4.70;2.35;;;;;;;21.23;82.00;92386.63;4864159;29;20051;-78
2021/07/24 16:59:49;;;;;;;1.83;1.52;;;;;;;21.18;81.90;92366.41;4863497;29;20146;-79
2021/07/24 17:02:15;;;;;;;2.22;1.90;;;;;;;21.17;83.02;92375.53;4881327;29;20097;-79
2021/07/24 17:04:40;;;;;;;7.50;2.38;;;;;;;21.18;83.26;92391.13;4866317;29;20076;-78
2021/07/24 17:07:07;;;;;;;1.30;1.20;;;;;;;21.17;83.38;92396.81;4866385;29;20057;-79
2021/07/24 17:09:33;;;;;;;2.58;1.73;;;;;;;21.17;82.59;92391.50;4883078;29;20049;-82
2021/07/24 17:11:58;;;;;;;2.28;1.70;;;;;;;21.29;81.83;92393.97;4880477;29;20156;-78
2021/07/24 17:14:24;;;;;;;7.68;2.97;;;;;;;21.46;82.21;92398.09;4870861;29;20048;-78
2021/07/24 17:16:50;;;;;;;2.78;1.92;;;;;;;21.72;81.33;92391.25;4851567;29;20516;-76
2021/07/24 17:19:17;;;;;;;2.78;1.80;;;;;;;21.96;81.06;92390.88;4881678;29;20041;-78
2021/07/24 17:21:43;;;;;;;8.70;2.25;;;;;;;22.14;81.20;92388.44;4871787;29;20053;-77
2021/07/24 17:24:09;;;;;;;4.90;3.10;;;;;;;22.33;80.03;92397.47;4873206;29;20061;-77
2021/07/24 17:26:34;;;;;;;2.42;1.70;;;;;;;22.50;78.48;92393.50;4885588;29;20052;-77
2021/07/24 17:29:00;;;;;;;3.20;2.22;;;;;;;22.56;78.91;92387.50;4882655;29;20040;-78
2021/07/24 17:31:26;;;;;;;3.25;2.35;;;;;;;22.56;79.43;92392.81;4876560;29;20056;-76
2021/07/24 17:33:57;;;;;;;4.20;2.88;;;;;;;22.58;79.81;92385.22;4886803;29;20412;-78
2021/07/24 17:36:24;;;;;;;2.15;1.40;;;;;;;22.60;81.21;92379.50;4879048;29;20056;-78